DLH453 KLAX-EDDM
Flight info
| Callsign | DLH453 |
|---|---|
| Flight time | N/A |
| Altitude | 37000 |
| Route | OSHNN1 BEALE Q842 PICHO/N0489F360 Q842 PATIO DCT PIH/N0494F370 DCT KU81O DCT KU03Q DCT KU15S DCT DURUR DCT 55N100W 60N090W/N0476F390 6330N08000W 66N070W/M084F390 DCT CANEL DCT 70N050W 7030N04000W 70N030W 6830N02000W/M085F410 66N010W DCT GUNPA/N0485F410 DCT MITSI P619 BAVTA P992 ATTUS DCT ELSOB DCT ABGUS DCT SODRO/N0501F310 T703 LULAR/N0504F300 T105 LANDU LANDU2B |
| Aircraft | A359/H-SDE2E3GHIJ3J4J5LM1ORWXY/LB1D1 |
Departure
| Time | 2026-04-24 18:55 |
|---|---|
| Airport | Los Angeles International Airport (KLAX) |
Arrival
| Time | N/A |
|---|---|
| Airport | Munich Airport (EDDM) |
| Time | Latitude | Longitude | Altitude | Speed | Heading |
|---|---|---|---|---|---|
| 2026-04-24 18:54 | 33.90000 | -118.06464 | 20940 ft | 429 kts | 46° |
| 2026-04-24 18:55 | 33.93770 | -118.00878 | 22229 ft | 428 kts | 46° |
| 2026-04-24 18:55 | 33.95636 | -117.98108 | 22840 ft | 428 kts | 45° |
| 2026-04-24 18:55 | 33.98129 | -117.94409 | 23540 ft | 430 kts | 45° |
| 2026-04-24 18:56 | 33.99404 | -117.92516 | 23831 ft | 430 kts | 45° |
| 2026-04-24 18:56 | 34.01286 | -117.89719 | 24278 ft | 431 kts | 45° |
| 2026-04-24 18:56 | 34.03175 | -117.86908 | 24720 ft | 431 kts | 45° |
| 2026-04-24 18:56 | 34.05041 | -117.84131 | 25156 ft | 430 kts | 45° |
| 2026-04-24 18:57 | 34.06927 | -117.81321 | 25607 ft | 430 kts | 45° |
| 2026-04-24 18:57 | 34.08812 | -117.78511 | 25975 ft | 432 kts | 45° |
| 2026-04-24 18:57 | 34.10700 | -117.75693 | 26335 ft | 434 kts | 45° |
| 2026-04-24 18:57 | 34.12606 | -117.72847 | 26716 ft | 435 kts | 45° |
| 2026-04-24 18:58 | 34.14514 | -117.69995 | 27089 ft | 436 kts | 46° |
| 2026-04-24 18:58 | 34.16423 | -117.67139 | 27469 ft | 437 kts | 46° |
| 2026-04-24 18:58 | 34.18333 | -117.64278 | 27857 ft | 438 kts | 46° |
| 2026-04-24 18:58 | 34.20245 | -117.61411 | 28246 ft | 438 kts | 46° |
| 2026-04-24 18:59 | 34.22171 | -117.58526 | 28517 ft | 442 kts | 46° |
| 2026-04-24 18:59 | 34.24112 | -117.55614 | 28746 ft | 446 kts | 46° |
| 2026-04-24 18:59 | 34.26061 | -117.52689 | 28982 ft | 449 kts | 46° |
| 2026-04-24 18:59 | 34.28021 | -117.49743 | 29219 ft | 452 kts | 46° |
| 2026-04-24 19:00 | 34.29994 | -117.46773 | 29459 ft | 455 kts | 46° |
| 2026-04-24 19:00 | 34.31990 | -117.43767 | 29695 ft | 459 kts | 46° |
| 2026-04-24 19:00 | 34.33977 | -117.40773 | 29954 ft | 462 kts | 46° |
| 2026-04-24 19:00 | 34.36000 | -117.37722 | 30182 ft | 465 kts | 46° |
| 2026-04-24 19:01 | 34.38031 | -117.34655 | 30398 ft | 468 kts | 46° |
| 2026-04-24 19:01 | 34.40071 | -117.31572 | 30614 ft | 470 kts | 46° |
| 2026-04-24 19:01 | 34.42117 | -117.28478 | 30825 ft | 472 kts | 46° |
| 2026-04-24 19:01 | 34.44178 | -117.25358 | 31060 ft | 475 kts | 46° |
| 2026-04-24 19:02 | 34.46245 | -117.22227 | 31275 ft | 477 kts | 46° |
| 2026-04-24 19:02 | 34.48316 | -117.19085 | 31498 ft | 479 kts | 46° |
| 2026-04-24 19:02 | 34.50404 | -117.15916 | 31709 ft | 481 kts | 46° |
| 2026-04-24 19:02 | 34.52493 | -117.12744 | 31931 ft | 482 kts | 46° |
| 2026-04-24 19:03 | 34.54582 | -117.09568 | 32152 ft | 484 kts | 46° |
| 2026-04-24 19:03 | 34.56730 | -117.06398 | 32387 ft | 484 kts | 45° |
| 2026-04-24 19:03 | 34.58898 | -117.03269 | 32601 ft | 485 kts | 45° |
| 2026-04-24 19:03 | 34.61039 | -117.00170 | 32816 ft | 485 kts | 45° |
| 2026-04-24 19:04 | 34.63205 | -116.97024 | 33067 ft | 486 kts | 45° |
| 2026-04-24 19:04 | 34.65374 | -116.93864 | 33291 ft | 486 kts | 45° |
| 2026-04-24 19:04 | 34.67540 | -116.90703 | 33538 ft | 486 kts | 45° |
| 2026-04-24 19:04 | 34.69702 | -116.87544 | 33770 ft | 487 kts | 45° |
| 2026-04-24 19:05 | 34.71864 | -116.84382 | 33976 ft | 487 kts | 45° |
| 2026-04-24 19:05 | 34.74023 | -116.81220 | 34183 ft | 487 kts | 45° |
| 2026-04-24 19:05 | 34.76162 | -116.78085 | 34361 ft | 486 kts | 45° |
| 2026-04-24 19:05 | 34.78351 | -116.74873 | 34555 ft | 485 kts | 45° |
| 2026-04-24 19:06 | 34.80506 | -116.71708 | 34740 ft | 485 kts | 45° |
| 2026-04-24 19:06 | 34.82623 | -116.68596 | 34945 ft | 484 kts | 45° |
| 2026-04-24 19:06 | 34.84768 | -116.65440 | 35129 ft | 482 kts | 45° |
| 2026-04-24 19:06 | 34.86921 | -116.62322 | 35317 ft | 479 kts | 42° |
| 2026-04-24 19:07 | 34.89172 | -116.59331 | 35516 ft | 476 kts | 41° |
| 2026-04-24 19:07 | 34.91430 | -116.56373 | 35714 ft | 474 kts | 41° |
| 2026-04-24 19:07 | 34.93658 | -116.53432 | 35915 ft | 472 kts | 41° |
| 2026-04-24 19:07 | 34.95878 | -116.50482 | 36109 ft | 470 kts | 41° |
| 2026-04-24 19:08 | 34.98069 | -116.47559 | 36301 ft | 467 kts | 41° |
| 2026-04-24 19:08 | 35.00263 | -116.44625 | 36449 ft | 466 kts | 41° |
| 2026-04-24 19:08 | 35.02449 | -116.41698 | 36546 ft | 466 kts | 41° |